createdAt,value
2018-08-08T00:00:40.451Z,64.90
2018-08-08T00:02:04.047Z,64.17
2018-08-08T00:03:31.694Z,63.89
2018-08-08T00:04:59.468Z,64.36
2018-08-08T00:06:27.091Z,64.29
2018-08-08T00:07:54.133Z,64.26
2018-08-08T00:09:25.682Z,64.58
2018-08-08T00:10:48.902Z,65.64
2018-08-08T00:12:20.034Z,64.45
2018-08-08T00:13:43.529Z,65.67
2018-08-08T00:15:11.217Z,64.40
2018-08-08T00:16:38.815Z,64.07
2018-08-08T00:18:10.392Z,64.54
2018-08-08T00:19:34.017Z,64.57
2018-08-08T00:21:05.400Z,64.86
2018-08-08T00:22:29.038Z,65.02
2018-08-08T00:23:55.909Z,66.07
2018-08-08T00:25:22.840Z,66.01
2018-08-08T00:26:54.308Z,65.28
2018-08-08T00:28:21.573Z,65.85
2018-08-08T00:29:49.038Z,65.75
2018-08-08T00:31:16.600Z,66.68
2018-08-08T00:32:39.802Z,66.25
2018-08-08T00:34:11.489Z,66.48
2018-08-08T00:35:39.183Z,66.38
2018-08-08T00:37:06.904Z,65.77
2018-08-08T00:38:30.560Z,65.34
2018-08-08T00:39:58.072Z,65.46
2018-08-08T00:41:25.654Z,65.01
2018-08-08T00:42:52.466Z,65.72
2018-08-08T00:44:20.264Z,65.73
2018-08-08T00:45:47.634Z,65.19
2018-08-08T00:47:15.193Z,66.00
2018-08-08T00:48:42.500Z,65.70
2018-08-08T00:50:09.976Z,66.44
2018-08-08T00:51:37.500Z,66.41
2018-08-08T00:53:09.026Z,66.26
2018-08-08T00:54:36.647Z,65.70
2018-08-08T00:55:59.287Z,66.90
2018-08-08T00:57:26.857Z,67.75
2018-08-08T00:58:54.402Z,66.67
2018-08-08T01:00:21.765Z,68.07
2018-08-08T01:01:49.487Z,67.40
2018-08-08T01:03:16.612Z,66.45
2018-08-08T01:04:44.147Z,66.71
2018-08-08T01:06:11.693Z,66.39
2018-08-08T01:07:43.312Z,67.07
2018-08-08T01:09:07.018Z,66.71
2018-08-08T01:10:34.052Z,67.58
2018-08-08T01:12:05.592Z,67.99
2018-08-08T01:13:32.196Z,67.63
2018-08-08T01:14:55.179Z,66.50
2018-08-08T01:16:22.069Z,67.16
2018-08-08T01:17:49.415Z,66.88
2018-08-08T01:19:21.116Z,66.47
2018-08-08T01:20:44.881Z,67.00
2018-08-08T01:22:15.987Z,66.40
2018-08-08T01:23:43.610Z,66.10
2018-08-08T01:25:07.412Z,65.85
2018-08-08T01:26:38.980Z,65.22
2018-08-08T01:28:02.694Z,65.15
2018-08-08T01:29:28.895Z,65.12
2018-08-08T01:30:59.468Z,64.74
2018-08-08T01:32:22.908Z,64.94
2018-08-08T01:33:50.548Z,64.78
2018-08-08T01:35:18.131Z,65.15
2018-08-08T01:36:45.840Z,67.76
2018-08-08T01:38:13.296Z,66.84
2018-08-08T01:39:40.789Z,65.87
2018-08-08T01:41:08.582Z,68.02
2018-08-08T01:42:36.190Z,66.46
2018-08-08T01:44:03.857Z,65.82
2018-08-08T01:45:35.642Z,68.01
2018-08-08T01:46:59.131Z,66.45
2018-08-08T01:48:30.846Z,66.36
2018-08-08T01:49:58.367Z,67.29
2018-08-08T01:51:25.223Z,66.21
2018-08-08T01:52:48.615Z,66.15
2018-08-08T01:54:16.302Z,67.34
2018-08-08T01:55:43.592Z,68.78
2018-08-08T01:57:11.075Z,67.26
2018-08-08T01:58:42.744Z,67.19
2018-08-08T02:00:06.290Z,66.78
2018-08-08T02:01:32.780Z,66.91
2018-08-08T02:03:04.395Z,66.72
2018-08-08T02:04:27.252Z,68.11
2018-08-08T02:05:54.972Z,66.94
2018-08-08T02:07:25.907Z,66.68
2018-08-08T02:08:49.280Z,66.50
2018-08-08T02:10:16.967Z,66.40
2018-08-08T02:11:44.564Z,66.37
2018-08-08T02:13:11.317Z,66.25
2018-08-08T02:14:38.212Z,66.55
2018-08-08T02:16:05.896Z,66.40
2018-08-08T02:17:33.582Z,66.51
2018-08-08T02:19:00.289Z,66.60
2018-08-08T02:20:27.876Z,66.56
2018-08-08T02:21:55.387Z,66.51
2018-08-08T02:23:23.012Z,66.64
2018-08-08T02:24:54.513Z,67.48
2018-08-08T02:26:17.973Z,67.31
2018-08-08T02:27:49.439Z,67.50
2018-08-08T02:29:12.973Z,67.34
2018-08-08T02:30:40.738Z,67.51
2018-08-08T02:32:12.340Z,67.55
2018-08-08T02:33:35.649Z,67.13
2018-08-08T02:35:07.236Z,67.10
2018-08-08T02:36:34.841Z,67.77
2018-08-08T02:37:58.534Z,67.25
2018-08-08T02:39:26.284Z,68.39
2018-08-08T02:40:57.879Z,67.35
2018-08-08T02:42:20.797Z,66.60
2018-08-08T02:43:48.403Z,66.60
2018-08-08T02:45:19.924Z,66.22
2018-08-08T02:46:47.256Z,66.93
2018-08-08T02:48:09.733Z,67.40
2018-08-08T02:49:37.229Z,66.88
2018-08-08T02:51:04.987Z,66.38
2018-08-08T02:52:32.678Z,67.38
2018-08-08T02:54:00.344Z,67.10
2018-08-08T02:55:31.815Z,67.22
2018-08-08T02:56:59.433Z,67.40
2018-08-08T02:58:26.378Z,68.37
2018-08-08T02:59:49.755Z,69.18
2018-08-08T03:01:17.135Z,68.90
2018-08-08T03:02:44.660Z,69.30
2018-08-08T03:04:12.280Z,70.12
2018-08-08T03:05:39.799Z,70.05
2018-08-08T03:07:06.884Z,70.55
2018-08-08T03:08:33.544Z,70.55
2018-08-08T03:10:00.356Z,70.68
2018-08-08T03:11:30.930Z,70.82
2018-08-08T03:12:53.183Z,70.80
2018-08-08T03:14:24.861Z,70.98
2018-08-08T03:15:47.413Z,71.96
2018-08-08T03:17:14.879Z,72.37
2018-08-08T03:18:46.464Z,72.19
2018-08-08T03:20:14.170Z,73.50
2018-08-08T03:21:37.921Z,74.00
2018-08-08T03:23:05.412Z,74.61
2018-08-08T03:24:32.174Z,75.06
2018-08-08T03:25:59.828Z,76.29
2018-08-08T03:27:31.440Z,75.03
2018-08-08T03:28:55.093Z,75.02
2018-08-08T03:30:25.825Z,74.89
2018-08-08T03:31:49.137Z,74.65
2018-08-08T03:33:16.660Z,75.11
2018-08-08T03:34:43.751Z,74.12
2018-08-08T03:36:11.296Z,74.78
2018-08-08T03:37:38.896Z,75.35
2018-08-08T03:39:10.546Z,74.86
2018-08-08T03:40:34.202Z,74.31
2018-08-08T03:42:01.665Z,73.27
2018-08-08T03:43:29.356Z,73.38
2018-08-08T03:45:00.921Z,72.89
2018-08-08T03:46:24.341Z,72.96
2018-08-08T03:47:51.461Z,74.21
2018-08-08T03:49:18.989Z,74.55
2018-08-08T03:50:50.266Z,76.78
2018-08-08T03:52:13.972Z,77.19
2018-08-08T03:53:40.943Z,83.88
2018-08-08T03:55:11.650Z,100.00
2018-08-08T03:56:38.936Z,100.00
2018-08-08T03:58:02.481Z,100.00
2018-08-08T03:59:28.944Z,100.00
2018-08-08T04:01:00.563Z,100.00
2018-08-08T04:02:24.249Z,100.00
2018-08-08T04:03:51.673Z,100.00
2018-08-08T04:05:19.213Z,100.00
2018-08-08T04:06:49.768Z,100.00
2018-08-08T04:08:17.058Z,100.00
2018-08-08T04:09:39.825Z,100.00
2018-08-08T04:11:07.296Z,100.00
2018-08-08T04:12:38.949Z,100.00
2018-08-08T04:14:02.563Z,100.00
2018-08-08T04:15:30.159Z,100.00
2018-08-08T04:16:57.778Z,100.00
2018-08-08T04:18:29.521Z,100.00
2018-08-08T04:19:57.029Z,100.00
2018-08-08T04:21:24.738Z,100.00
2018-08-08T04:22:48.206Z,100.00
2018-08-08T04:24:12.039Z,100.00
2018-08-08T04:25:46.507Z,100.00
2018-08-08T04:27:12.887Z,100.00
2018-08-08T04:28:40.449Z,100.00
2018-08-08T04:30:04.106Z,100.00
2018-08-08T04:31:31.754Z,100.00
2018-08-08T04:32:59.398Z,100.00
2018-08-08T04:34:27.010Z,100.00
2018-08-08T04:35:54.543Z,100.00
2018-08-08T04:37:21.348Z,100.00
2018-08-08T04:38:51.872Z,100.00
2018-08-08T04:40:15.440Z,100.00
2018-08-08T04:41:42.977Z,100.00
2018-08-08T04:43:14.633Z,100.00
2018-08-08T04:44:42.291Z,100.00
2018-08-08T04:46:05.176Z,100.00
2018-08-08T04:47:36.508Z,100.00
2018-08-08T04:49:04.095Z,100.00
2018-08-08T04:50:27.639Z,100.00
2018-08-08T04:51:55.239Z,100.00
2018-08-08T04:53:22.775Z,100.00
2018-08-08T04:54:54.305Z,100.00
2018-08-08T04:56:16.997Z,100.00
2018-08-08T04:57:44.364Z,100.00
2018-08-08T04:59:12.099Z,100.00
2018-08-08T05:00:39.807Z,100.00
2018-08-08T05:02:07.571Z,100.00
2018-08-08T05:03:39.254Z,100.00
2018-08-08T05:05:01.807Z,100.00
2018-08-08T05:06:33.510Z,100.00
2018-08-08T05:08:01.237Z,100.00
2018-08-08T05:09:24.571Z,100.00
2018-08-08T05:10:56.352Z,100.00
2018-08-08T05:12:23.791Z,100.00
2018-08-08T05:13:51.471Z,100.00
2018-08-08T05:15:19.548Z,100.00
2018-08-08T05:16:42.123Z,100.00
2018-08-08T05:18:09.360Z,100.00
2018-08-08T05:19:40.681Z,100.00
2018-08-08T05:21:08.281Z,100.00
2018-08-08T05:22:31.666Z,100.00
2018-08-08T05:24:03.349Z,100.00
2018-08-08T05:25:30.936Z,100.00
2018-08-08T05:26:58.443Z,100.00
2018-08-08T05:28:26.053Z,100.00
2018-08-08T05:29:49.519Z,100.00
2018-08-08T05:31:21.042Z,100.00
2018-08-08T05:32:44.711Z,100.00
2018-08-08T05:34:11.867Z,100.00
2018-08-08T05:35:39.369Z,100.00
2018-08-08T05:37:06.935Z,100.00
2018-08-08T05:38:33.747Z,100.00
2018-08-08T05:40:01.343Z,100.00
2018-08-08T05:41:28.886Z,100.00
2018-08-08T05:43:00.612Z,100.00
2018-08-08T05:44:24.172Z,100.00
2018-08-08T05:45:50.917Z,100.00
2018-08-08T05:47:22.551Z,100.00
2018-08-08T05:48:49.934Z,100.00
2018-08-08T05:50:13.601Z,100.00
2018-08-08T05:51:41.136Z,100.00
2018-08-08T05:53:08.710Z,100.00
2018-08-08T05:54:36.514Z,100.00
2018-08-08T05:56:08.221Z,98.87
2018-08-08T05:57:30.775Z,90.07
2018-08-08T05:58:58.415Z,89.69
2018-08-08T06:00:29.181Z,85.21
2018-08-08T06:01:52.849Z,81.13
2018-08-08T06:03:20.309Z,81.29
2018-08-08T06:04:47.829Z,78.56
2018-08-08T06:06:14.759Z,77.07
2018-08-08T06:07:41.751Z,78.56
2018-08-08T06:09:09.522Z,76.95
2018-08-08T06:10:41.091Z,77.91
2018-08-08T06:12:04.719Z,78.20
2018-08-08T06:13:31.233Z,76.98
2018-08-08T06:14:58.913Z,76.00
2018-08-08T06:16:30.588Z,77.00
2018-08-08T06:17:54.261Z,77.02
2018-08-08T06:19:24.873Z,77.00
2018-08-08T06:20:47.537Z,77.95
2018-08-08T06:22:15.249Z,80.73
2018-08-08T06:23:42.616Z,80.66
2018-08-08T06:25:10.321Z,82.22
2018-08-08T06:26:41.654Z,80.92
2018-08-08T06:28:05.041Z,80.30
2018-08-08T06:29:32.757Z,82.11
2018-08-08T06:31:04.429Z,83.32
2018-08-08T06:32:32.032Z,80.06
2018-08-08T06:33:55.639Z,79.76
2018-08-08T06:35:22.940Z,80.08
2018-08-08T06:36:50.469Z,81.45
2018-08-08T06:38:21.982Z,79.77
2018-08-08T06:39:45.143Z,80.46
2018-08-08T06:41:16.337Z,80.87
2018-08-08T06:42:39.523Z,81.60
2018-08-08T06:44:06.517Z,82.40
2018-08-08T06:45:34.132Z,81.23
2018-08-08T06:47:01.854Z,82.03
2018-08-08T06:48:29.565Z,81.99
2018-08-08T06:49:56.495Z,80.54
2018-08-08T06:51:23.160Z,81.59
2018-08-08T06:52:50.724Z,81.91
2018-08-08T06:54:18.386Z,81.41
2018-08-08T06:55:45.505Z,80.29
2018-08-08T06:57:13.163Z,79.58
2018-08-08T06:58:40.772Z,81.02
2018-08-08T07:00:12.448Z,81.91
2018-08-08T07:01:35.435Z,80.61
2018-08-08T07:03:03.180Z,79.02
2018-08-08T07:04:34.894Z,79.64
2018-08-08T07:06:02.446Z,78.84
2018-08-08T07:07:26.076Z,78.07
2018-08-08T07:08:53.816Z,80.66
2018-08-08T07:10:21.433Z,82.30
2018-08-08T07:11:48.620Z,80.94
2018-08-08T07:13:16.306Z,79.88
2018-08-08T07:14:47.043Z,81.16
2018-08-08T07:16:10.560Z,81.06
2018-08-08T07:17:38.244Z,79.98
2018-08-08T07:19:09.920Z,79.43
2018-08-08T07:20:33.549Z,81.25
2018-08-08T07:22:00.724Z,80.45
2018-08-08T07:23:28.456Z,80.35
2018-08-08T07:24:59.832Z,79.18
2018-08-08T07:26:23.467Z,80.85
2018-08-08T07:27:51.090Z,80.25
2018-08-08T07:29:22.718Z,80.18
2018-08-08T07:30:46.435Z,81.25
2018-08-08T07:32:13.268Z,82.22
2018-08-08T07:33:40.826Z,81.03
2018-08-08T07:35:08.453Z,81.27
2018-08-08T07:36:36.135Z,83.40
2018-08-08T07:38:03.915Z,82.41
2018-08-08T07:39:31.536Z,83.34
2018-08-08T07:41:02.796Z,83.44
2018-08-08T07:42:26.439Z,82.52
2018-08-08T07:43:57.594Z,81.46
2018-08-08T07:45:24.976Z,80.79
2018-08-08T07:46:48.634Z,80.80
2018-08-08T07:48:16.334Z,80.63
2018-08-08T07:49:43.955Z,80.48
2018-08-08T07:51:11.527Z,78.84
2018-08-08T07:52:39.234Z,77.89
2018-08-08T07:54:05.942Z,75.67
2018-08-08T07:55:33.561Z,74.15
2018-08-08T07:57:01.311Z,72.86
2018-08-08T07:58:28.527Z,71.94
2018-08-08T07:59:55.825Z,71.84
2018-08-08T08:01:22.669Z,70.41
2018-08-08T08:02:55.286Z,69.09
2018-08-08T08:04:17.322Z,69.83
2018-08-08T08:05:44.756Z,70.01
2018-08-08T08:07:12.834Z,69.02
2018-08-08T08:08:39.855Z,67.36
2018-08-08T08:10:07.566Z,67.18
2018-08-08T08:11:35.313Z,67.77
2018-08-08T08:13:03.022Z,67.07
2018-08-08T08:14:30.822Z,69.07
2018-08-08T08:15:58.527Z,68.13
2018-08-08T08:17:26.146Z,67.42
2018-08-08T08:18:57.776Z,66.66
2018-08-08T08:20:21.086Z,65.01
2018-08-08T08:21:48.829Z,65.78
2018-08-08T08:23:16.579Z,67.29
2018-08-08T08:24:44.108Z,66.48
2018-08-08T08:26:15.688Z,68.22
2018-08-08T08:27:39.234Z,69.31
2018-08-08T08:29:10.560Z,69.50
2018-08-08T08:30:37.822Z,70.75
2018-08-08T08:32:05.662Z,69.58
2018-08-08T08:33:29.097Z,68.87
2018-08-08T08:35:00.882Z,69.28
2018-08-08T08:36:23.964Z,70.91
2018-08-08T08:37:51.717Z,69.29
2018-08-08T08:39:19.337Z,67.59
2018-08-08T08:40:46.929Z,66.78
2018-08-08T08:42:14.681Z,66.01
2018-08-08T08:43:42.483Z,67.24
2018-08-08T08:45:14.087Z,68.47
2018-08-08T08:46:41.729Z,66.63
2018-08-08T08:48:05.481Z,67.22
2018-08-08T08:49:37.115Z,68.27
2018-08-08T08:51:00.850Z,68.29
2018-08-08T08:52:32.552Z,66.91
2018-08-08T08:54:00.281Z,68.02
2018-08-08T08:55:23.915Z,67.89
2018-08-08T08:56:51.475Z,68.36
2018-08-08T08:58:19.191Z,68.48
2018-08-08T08:59:50.716Z,68.88
2018-08-08T09:01:13.794Z,69.42
2018-08-08T09:02:45.124Z,67.53
2018-08-08T09:04:09.181Z,67.20
2018-08-08T09:05:36.714Z,67.59
2018-08-08T09:07:08.489Z,68.96
2018-08-08T09:08:32.149Z,68.27
2018-08-08T09:10:03.052Z,71.06
2018-08-08T09:11:26.639Z,68.11
2018-08-08T09:12:57.237Z,66.76
2018-08-08T09:14:24.250Z,65.69
2018-08-08T09:15:47.450Z,64.42
2018-08-08T09:17:19.161Z,64.08
2018-08-08T09:18:46.667Z,64.89
2018-08-08T09:20:10.495Z,63.94
2018-08-08T09:21:42.131Z,63.89
2018-08-08T09:23:05.877Z,63.61
2018-08-08T09:24:33.707Z,64.54
2018-08-08T09:26:04.707Z,62.01
2018-08-08T09:27:32.371Z,62.13
2018-08-08T09:29:00.154Z,62.25
2018-08-08T09:30:27.830Z,61.92
2018-08-08T09:31:51.517Z,62.06
2018-08-08T09:33:23.197Z,63.22
2018-08-08T09:34:46.773Z,61.80
2018-08-08T09:36:18.433Z,62.99
2018-08-08T09:37:42.193Z,60.90
2018-08-08T09:39:09.918Z,62.07
2018-08-08T09:40:41.624Z,60.92
2018-08-08T09:42:05.376Z,61.34
2018-08-08T09:43:32.441Z,60.64
2018-08-08T09:44:59.893Z,60.32
2018-08-08T09:46:27.553Z,59.83
2018-08-08T09:47:55.306Z,59.98
2018-08-08T09:49:23.010Z,60.18
2018-08-08T09:50:50.626Z,59.07
2018-08-08T09:52:18.517Z,60.29
2018-08-08T09:53:46.150Z,59.12
2018-08-08T09:55:13.755Z,58.68
2018-08-08T09:56:45.491Z,57.58
2018-08-08T09:58:09.250Z,57.12
2018-08-08T09:59:40.940Z,58.66
2018-08-08T10:01:04.613Z,56.33
2018-08-08T10:02:32.227Z,56.62
2018-08-08T10:04:04.045Z,57.01
2018-08-08T10:05:31.774Z,56.98
2018-08-08T10:06:59.373Z,58.11
2018-08-08T10:08:23.094Z,55.66
2018-08-08T10:09:54.540Z,55.90
2018-08-08T10:11:22.315Z,55.51
2018-08-08T10:12:45.954Z,55.67
2018-08-08T10:14:13.671Z,55.35
2018-08-08T10:15:41.366Z,55.23
2018-08-08T10:17:09.021Z,54.55
2018-08-08T10:18:36.740Z,53.72
2018-08-08T10:20:04.295Z,53.51
2018-08-08T10:21:31.791Z,53.14
2018-08-08T10:22:59.520Z,53.29
2018-08-08T10:24:27.193Z,52.83
2018-08-08T10:25:58.844Z,53.08
2018-08-08T10:27:22.461Z,53.38
2018-08-08T10:28:50.217Z,53.64
2018-08-08T10:30:17.819Z,53.63
2018-08-08T10:31:45.486Z,53.89
2018-08-08T10:33:12.963Z,53.42
2018-08-08T10:34:40.299Z,53.72
2018-08-08T10:36:08.094Z,54.46
2018-08-08T10:37:35.634Z,54.61
2018-08-08T10:39:02.787Z,53.36
2018-08-08T10:40:30.505Z,53.27
2018-08-08T10:41:58.277Z,53.81
2018-08-08T10:43:26.074Z,53.31
2018-08-08T10:44:53.815Z,54.50
2018-08-08T10:46:21.442Z,54.83
2018-08-08T10:47:49.209Z,53.86
2018-08-08T10:49:24.897Z,54.57
2018-08-08T10:50:48.375Z,53.92
2018-08-08T10:52:11.987Z,53.24
2018-08-08T10:53:39.580Z,52.08
2018-08-08T10:55:07.067Z,50.66
2018-08-08T10:56:34.817Z,51.43
2018-08-08T10:58:02.522Z,51.37
2018-08-08T10:59:30.303Z,52.63
2018-08-08T11:01:01.907Z,52.40
2018-08-08T11:02:29.806Z,52.37
2018-08-08T11:03:53.440Z,52.45
2018-08-08T11:05:25.226Z,51.63
2018-08-08T11:06:48.952Z,52.92
2018-08-08T11:08:16.720Z,52.63
2018-08-08T11:09:44.355Z,51.88
2018-08-08T11:11:15.994Z,51.09
2018-08-08T11:12:39.723Z,51.05
2018-08-08T11:14:11.420Z,50.36
2018-08-08T11:15:34.717Z,51.04
2018-08-08T11:17:06.641Z,50.61
2018-08-08T11:18:30.403Z,51.07
2018-08-08T11:19:58.246Z,49.83
2018-08-08T11:21:29.996Z,50.39
2018-08-08T11:22:53.849Z,50.93
2018-08-08T11:24:21.422Z,51.06
2018-08-08T11:25:53.240Z,50.27
2018-08-08T11:27:20.695Z,50.00
2018-08-08T11:28:44.256Z,49.34
2018-08-08T11:30:11.865Z,48.79
2018-08-08T11:31:39.591Z,47.48
2018-08-08T11:33:07.301Z,48.37
2018-08-08T11:34:34.671Z,47.86
2018-08-08T11:36:06.471Z,47.87
2018-08-08T11:37:30.301Z,47.47
2018-08-08T11:38:58.023Z,47.48
2018-08-08T11:40:25.671Z,47.02
2018-08-08T11:41:57.210Z,47.80
2018-08-08T11:43:21.149Z,48.19
2018-08-08T11:44:48.807Z,47.41
2018-08-08T11:46:20.437Z,46.35
2018-08-08T11:47:44.241Z,45.95
2018-08-08T11:49:11.972Z,46.22
2018-08-08T11:50:39.706Z,45.42
2018-08-08T11:52:07.467Z,44.84
2018-08-08T11:53:39.071Z,44.16
2018-08-08T11:55:02.871Z,43.66
2018-08-08T11:56:30.335Z,43.47
2018-08-08T11:57:58.255Z,44.00
2018-08-08T11:59:25.986Z,43.88
2018-08-08T12:00:53.601Z,44.67
2018-08-08T12:02:25.338Z,43.83
2018-08-08T12:03:48.939Z,43.76
2018-08-08T12:05:16.722Z,43.53
2018-08-08T12:06:44.462Z,42.07
2018-08-08T12:08:16.261Z,42.11
2018-08-08T12:09:40.062Z,42.96
2018-08-08T12:11:07.952Z,42.66
2018-08-08T12:12:35.850Z,42.08
2018-08-08T12:14:03.571Z,41.41
2018-08-08T12:15:31.293Z,41.29
2018-08-08T12:16:59.087Z,41.24
2018-08-08T12:18:26.742Z,41.63
2018-08-08T12:19:54.641Z,41.61
2018-08-08T12:21:22.150Z,40.66
2018-08-08T12:22:54.097Z,41.24
2018-08-08T12:24:17.610Z,41.24
2018-08-08T12:25:45.364Z,40.81
2018-08-08T12:27:17.035Z,41.28
2018-08-08T12:28:40.597Z,41.55
2018-08-08T12:30:08.293Z,40.45
2018-08-08T12:31:36.127Z,39.68
2018-08-08T12:33:07.931Z,39.98
2018-08-08T12:34:31.740Z,40.24
2018-08-08T12:35:59.553Z,39.99
2018-08-08T12:37:27.384Z,40.18
2018-08-08T12:38:55.139Z,40.50
2018-08-08T12:40:26.639Z,40.55
2018-08-08T12:41:54.418Z,40.59
2018-08-08T12:43:18.164Z,40.07
2018-08-08T12:44:45.637Z,39.54
2018-08-08T12:46:13.469Z,40.04
2018-08-08T12:47:41.149Z,39.91
2018-08-08T12:49:12.902Z,39.86
2018-08-08T12:50:36.757Z,39.47
2018-08-08T12:52:08.614Z,40.33
2018-08-08T12:53:36.413Z,40.38
2018-08-08T12:55:04.215Z,40.72
2018-08-08T12:56:27.717Z,40.65
2018-08-08T12:57:55.569Z,40.50
2018-08-08T12:59:27.411Z,40.79
2018-08-08T13:00:51.259Z,41.49
2018-08-08T13:02:19.045Z,41.68
2018-08-08T13:03:50.808Z,41.05
2018-08-08T13:05:14.506Z,41.06
2018-08-08T13:06:42.229Z,40.62
2018-08-08T13:08:10.056Z,40.61
2018-08-08T13:09:37.906Z,41.07
2018-08-08T13:11:05.525Z,40.56
2018-08-08T13:12:33.711Z,41.08
2018-08-08T13:14:01.589Z,40.92
2018-08-08T13:15:29.394Z,41.11
2018-08-08T13:16:57.234Z,40.88
2018-08-08T13:18:28.850Z,41.30
2018-08-08T13:19:52.707Z,41.04
2018-08-08T13:21:24.193Z,41.12
2018-08-08T13:22:48.122Z,41.52
2018-08-08T13:24:19.712Z,41.33
2018-08-08T13:25:43.464Z,41.84
2018-08-08T13:27:11.256Z,41.77
2018-08-08T13:28:43.008Z,41.77
2018-08-08T13:30:06.607Z,42.02
2018-08-08T13:31:34.467Z,42.18
2018-08-08T13:33:06.197Z,42.75
2018-08-08T13:34:37.819Z,42.74
2018-08-08T13:35:57.649Z,43.23
2018-08-08T13:37:25.214Z,43.24
2018-08-08T13:38:57.072Z,43.23
2018-08-08T13:40:20.740Z,43.14
2018-08-08T13:41:52.579Z,43.69
2018-08-08T13:43:16.367Z,43.98
2018-08-08T13:44:43.949Z,44.27
2018-08-08T13:46:15.777Z,44.29
2018-08-08T13:47:43.396Z,43.38
2018-08-08T13:49:07.205Z,43.39
2018-08-08T13:50:39.015Z,43.70
2018-08-08T13:52:06.830Z,43.80
2018-08-08T13:53:30.390Z,43.93
2018-08-08T13:54:58.220Z,43.86
2018-08-08T13:56:26.019Z,44.18
2018-08-08T13:57:57.544Z,44.15
2018-08-08T13:59:21.248Z,44.22
2018-08-08T14:00:52.481Z,43.89
2018-08-08T14:02:16.432Z,44.03
2018-08-08T14:03:44.182Z,43.99
2018-08-08T14:05:11.925Z,43.71
2018-08-08T14:06:39.600Z,44.25
2018-08-08T14:08:07.470Z,44.30
2018-08-08T14:09:35.180Z,43.23
2018-08-08T14:11:07.023Z,42.47
2018-08-08T14:12:30.144Z,42.45
2018-08-08T14:13:57.996Z,42.20
2018-08-08T14:15:25.640Z,42.61
2018-08-08T14:16:56.852Z,42.15
2018-08-08T14:18:20.601Z,42.37
2018-08-08T14:19:48.432Z,42.67
2018-08-08T14:21:19.902Z,42.59
2018-08-08T14:22:43.778Z,42.30
2018-08-08T14:24:11.107Z,42.27
2018-08-08T14:25:38.816Z,43.18
2018-08-08T14:27:06.545Z,43.67
2018-08-08T14:28:37.903Z,43.62
2018-08-08T14:30:01.360Z,43.18
2018-08-08T14:31:28.977Z,43.12
2018-08-08T14:32:56.743Z,43.15
2018-08-08T14:34:24.510Z,42.81
2018-08-08T14:35:52.244Z,42.85
2018-08-08T14:37:19.369Z,42.40
2018-08-08T14:38:47.080Z,42.96
2018-08-08T14:40:14.511Z,43.14
2018-08-08T14:41:46.169Z,42.99
2018-08-08T14:43:09.987Z,42.80
2018-08-08T14:44:37.851Z,42.81
2018-08-08T14:46:05.232Z,42.48
2018-08-08T14:47:32.937Z,42.43
2018-08-08T14:49:00.299Z,42.96
2018-08-08T14:50:27.613Z,42.87
2018-08-08T14:51:55.372Z,42.79
2018-08-08T14:53:27.127Z,42.70
2018-08-08T14:54:50.832Z,43.01
2018-08-08T14:56:17.837Z,42.93
2018-08-08T14:57:45.676Z,43.19
2018-08-08T14:59:13.352Z,43.46
2018-08-08T15:00:41.049Z,43.62
2018-08-08T15:02:08.643Z,43.27
2018-08-08T15:03:36.287Z,43.44
2018-08-08T15:05:08.108Z,43.84
2018-08-08T15:06:31.332Z,44.51
2018-08-08T15:07:58.689Z,44.55
2018-08-08T15:09:26.364Z,44.65
2018-08-08T15:10:58.093Z,44.63
2018-08-08T15:12:21.838Z,44.60
2018-08-08T15:13:49.694Z,45.13
2018-08-08T15:15:17.228Z,45.33
2018-08-08T15:16:45.023Z,45.53
2018-08-08T15:18:12.517Z,45.65
2018-08-08T15:19:40.316Z,45.68
2018-08-08T15:21:07.541Z,45.81
2018-08-08T15:22:39.343Z,45.74
2018-08-08T15:24:03.145Z,45.61
2018-08-08T15:25:34.805Z,45.64
2018-08-08T15:26:58.643Z,45.87
2018-08-08T15:28:26.393Z,46.10
2018-08-08T15:29:53.581Z,45.95
2018-08-08T15:31:21.207Z,45.81
2018-08-08T15:32:48.702Z,45.78
2018-08-08T15:34:19.907Z,45.69
2018-08-08T15:35:43.332Z,45.47
2018-08-08T15:37:15.393Z,45.78
2018-08-08T15:38:38.377Z,45.78
2018-08-08T15:40:09.487Z,45.80
2018-08-08T15:41:33.318Z,45.93
2018-08-08T15:43:05.035Z,46.18
2018-08-08T15:44:28.684Z,46.38
2018-08-08T15:45:56.488Z,46.85
2018-08-08T15:47:24.305Z,46.80
2018-08-08T15:48:51.923Z,47.28
2018-08-08T15:50:19.694Z,47.29
2018-08-08T15:51:47.540Z,47.59
2018-08-08T15:53:14.777Z,47.63
2018-08-08T15:54:46.426Z,47.92
2018-08-08T15:56:14.057Z,48.34
2018-08-08T15:57:38.022Z,48.27
2018-08-08T15:59:05.137Z,48.65
2018-08-08T16:00:32.927Z,48.57
2018-08-08T16:02:04.627Z,48.79
2018-08-08T16:03:28.328Z,48.99
2018-08-08T16:04:59.816Z,49.08
2018-08-08T16:06:23.421Z,49.23
2018-08-08T16:07:51.050Z,49.67
2018-08-08T16:09:18.585Z,49.85
2018-08-08T16:10:46.050Z,49.88
2018-08-08T16:12:17.520Z,50.36
2018-08-08T16:13:45.129Z,50.41
2018-08-08T16:15:13.008Z,50.56
2018-08-08T16:16:36.099Z,50.96
2018-08-08T16:18:03.872Z,50.64
2018-08-08T16:19:35.551Z,51.59
2018-08-08T16:21:02.499Z,52.39
2018-08-08T16:22:30.195Z,52.99
2018-08-08T16:23:53.936Z,51.08
2018-08-08T16:25:21.652Z,51.02
2018-08-08T16:26:49.388Z,52.81
2018-08-08T16:28:21.084Z,52.89
2018-08-08T16:29:44.307Z,51.99
2018-08-08T16:31:12.009Z,52.59
2018-08-08T16:32:39.721Z,52.75
2018-08-08T16:34:07.484Z,51.70
2018-08-08T16:35:39.039Z,51.54
2018-08-08T16:37:02.785Z,51.45
2018-08-08T16:38:29.639Z,51.40
2018-08-08T16:40:01.339Z,51.32
2018-08-08T16:41:24.965Z,51.35
2018-08-08T16:42:52.628Z,51.34
2018-08-08T16:44:23.646Z,50.68
2018-08-08T16:45:46.833Z,50.75
2018-08-08T16:47:14.483Z,50.26
2018-08-08T16:48:42.171Z,49.92
2018-08-08T16:50:08.932Z,49.87
2018-08-08T16:51:36.658Z,49.98
2018-08-08T16:53:04.413Z,50.38
2018-08-08T16:54:32.098Z,50.06
2018-08-08T16:56:02.707Z,50.57
2018-08-08T16:57:25.755Z,50.38
2018-08-08T16:58:53.445Z,50.20
2018-08-08T17:00:21.039Z,49.94
2018-08-08T17:01:47.986Z,50.23
2018-08-08T17:03:15.232Z,50.34
2018-08-08T17:04:42.819Z,50.38
2018-08-08T17:06:10.315Z,50.49
2018-08-08T17:07:38.102Z,50.60
2018-08-08T17:09:05.103Z,50.56
2018-08-08T17:10:36.833Z,50.84
2018-08-08T17:12:00.658Z,50.79
2018-08-08T17:13:28.452Z,50.91
2018-08-08T17:14:59.521Z,50.61
2018-08-08T17:16:23.277Z,51.07
2018-08-08T17:17:50.668Z,51.16
2018-08-08T17:19:18.356Z,51.58
2018-08-08T17:20:45.289Z,51.65
2018-08-08T17:22:13.072Z,51.73
2018-08-08T17:23:40.033Z,52.17
2018-08-08T17:25:11.153Z,52.55
2018-08-08T17:26:34.993Z,52.81
2018-08-08T17:28:05.884Z,52.91
2018-08-08T17:29:33.573Z,53.29
2018-08-08T17:31:01.251Z,53.38
2018-08-08T17:32:28.917Z,53.68
2018-08-08T17:33:56.555Z,53.97
2018-08-08T17:35:24.173Z,52.83
2018-08-08T17:36:47.240Z,53.01
2018-08-08T17:38:18.854Z,52.58
2018-08-08T17:39:42.187Z,52.55
2018-08-08T17:41:09.254Z,52.43
2018-08-08T17:42:37.224Z,52.58
2018-08-08T17:44:04.316Z,52.82
2018-08-08T17:45:31.872Z,52.70
2018-08-08T17:46:59.631Z,52.87
2018-08-08T17:48:27.406Z,53.03
2018-08-08T17:49:55.087Z,53.00
2018-08-08T17:51:26.196Z,53.03
2018-08-08T17:52:49.880Z,52.84
2018-08-08T17:54:17.481Z,53.05
2018-08-08T17:55:45.180Z,52.96
2018-08-08T17:57:12.817Z,52.82
2018-08-08T17:58:40.527Z,52.78
2018-08-08T18:00:08.219Z,52.96
2018-08-08T18:01:35.968Z,52.76
2018-08-08T18:03:03.649Z,52.45
2018-08-08T18:04:31.376Z,52.79
2018-08-08T18:05:58.993Z,52.67
2018-08-08T18:07:26.466Z,52.68
2018-08-08T18:08:57.355Z,52.66
2018-08-08T18:10:21.031Z,52.74
2018-08-08T18:11:48.001Z,52.66
2018-08-08T18:13:19.733Z,52.92
2018-08-08T18:14:43.371Z,52.99
2018-08-08T18:16:10.957Z,53.10
2018-08-08T18:17:38.618Z,53.03
2018-08-08T18:19:06.317Z,53.04
2018-08-08T18:20:34.014Z,53.33
2018-08-08T18:22:01.022Z,53.73
2018-08-08T18:23:28.628Z,53.98
2018-08-08T18:24:56.398Z,54.39
2018-08-08T18:26:24.195Z,54.18
2018-08-08T18:27:51.765Z,54.34
2018-08-08T18:29:19.448Z,54.26
2018-08-08T18:30:47.035Z,54.34
2018-08-08T18:32:14.829Z,55.08
2018-08-08T18:33:42.481Z,54.87
2018-08-08T18:35:10.139Z,55.82
2018-08-08T18:36:37.965Z,56.33
2018-08-08T18:38:09.589Z,56.65
2018-08-08T18:39:36.722Z,56.91
2018-08-08T18:41:00.465Z,56.69
2018-08-08T18:42:27.525Z,56.76
2018-08-08T18:43:59.381Z,56.93